Time;durP1;ratioP1;P1;durP2;ratioP2;P2;SDS_P1;SDS_P2;PMS_P1;PMS_P2;Temp;Humidity;BMP_temperature;BMP_pressure;BME280_temperature;BME280_humidity;BME280_pressure;Samples;Min_cycle;Max_cycle;Signal;HPM_P1;HPM_P2
2023/12/21 00:00:50;;;;;;;13.32;11.23;;;;;;;4.81;64.86;99647.84;4452003;32;20168;-80
2023/12/21 00:03:24;;;;;;;13.62;11.12;;;;;;;4.89;64.21;99642.22;4437698;32;20164;-80
2023/12/21 00:06:12;;;;;;;14.63;12.00;;;;;;;5.02;63.78;99651.19;4452025;32;20160;-80
2023/12/21 00:08:41;;;;;;;13.88;10.20;;;;;;;4.74;64.55;99641.19;4452178;32;20167;-79
2023/12/21 00:11:11;;;;;;;14.82;11.55;;;;;;;4.73;64.79;99633.41;4451718;32;20164;-79
2023/12/21 00:13:40;;;;;;;11.73;9.85;;;;;;;4.59;65.43;99637.59;4451792;32;20168;-79
2023/12/21 00:16:09;;;;;;;13.65;9.18;;;;;;;4.71;65.14;99627.37;4451613;32;20172;-79
2023/12/21 00:18:40;;;;;;;11.35;8.88;;;;;;;4.54;65.71;99625.59;4451354;32;20171;-80
2023/12/21 00:21:10;;;;;;;12.25;8.85;;;;;;;4.67;65.22;99629.31;4437371;32;20548;-80
2023/12/21 00:23:44;;;;;;;11.15;9.00;;;;;;;4.66;65.54;99620.59;4452107;32;20603;-80
2023/12/21 00:26:13;;;;;;;12.02;7.75;;;;;;;4.43;66.31;99620.84;4451882;32;20164;-80
2023/12/21 00:28:42;;;;;;;9.73;8.32;;;;;;;4.49;66.27;99624.97;4451257;32;20155;-79
2023/12/21 00:31:12;;;;;;;11.02;7.40;;;;;;;4.51;66.05;99613.47;4451484;32;20167;-79
2023/12/21 00:33:42;;;;;;;9.90;7.03;;;;;;;4.47;66.40;99617.16;4451286;32;20172;-80
2023/12/21 00:36:16;;;;;;;8.05;7.15;;;;;;;4.46;66.30;99618.09;4451262;32;20467;-80
2023/12/21 00:38:46;;;;;;;11.60;7.32;;;;;;;4.52;66.12;99617.81;4451580;32;20157;-80
2023/12/21 00:41:15;;;;;;;9.15;6.12;;;;;;;4.60;65.85;99617.44;4452017;32;20283;-80
2023/12/21 00:43:44;;;;;;;11.77;6.30;;;;;;;4.74;65.30;99608.88;4453806;32;20159;-80
2023/12/21 00:46:14;;;;;;;8.07;6.68;;;;;;;4.84;65.03;99604.87;4453495;32;20176;-80
2023/12/21 00:48:44;;;;;;;8.10;6.05;;;;;;;4.92;64.65;99600.06;4453391;32;20171;-80
2023/12/21 00:51:13;;;;;;;6.30;4.20;;;;;;;4.78;64.77;99597.28;4453621;32;20168;-80
2023/12/21 00:53:42;;;;;;;7.07;4.82;;;;;;;5.01;64.26;99591.72;4453649;32;20171;-79
2023/12/21 00:56:11;;;;;;;5.43;4.10;;;;;;;4.94;64.15;99588.53;4453565;32;20528;-80
2023/12/21 00:58:41;;;;;;;7.15;4.95;;;;;;;5.05;63.44;99587.16;4453287;32;20182;-79
2023/12/21 01:01:16;;;;;;;6.65;4.05;;;;;;;5.04;63.35;99585.47;4453285;32;20144;-80
2023/12/21 01:03:47;;;;;;;5.32;3.85;;;;;;;4.97;63.13;99584.94;4453357;32;20172;-80
2023/12/21 01:06:16;;;;;;;5.97;3.58;;;;;;;5.12;62.71;99592.03;4453452;32;20171;-80
2023/12/21 01:08:45;;;;;;;7.35;3.95;;;;;;;4.84;63.29;99594.38;4453719;32;20442;-80
2023/12/21 01:11:16;;;;;;;4.82;2.80;;;;;;;5.15;62.31;99588.41;4453138;32;20183;-80
2023/12/21 01:13:45;;;;;;;4.85;2.53;;;;;;;5.34;61.74;99589.09;4453526;32;20187;-80
2023/12/21 01:16:18;;;;;;;5.50;3.25;;;;;;;5.32;61.79;99590.97;4453027;32;20163;-80
2023/12/21 01:18:48;;;;;;;3.65;2.83;;;;;;;5.17;62.03;99583.91;4453376;32;20175;-80
2023/12/21 01:21:18;;;;;;;3.60;2.60;;;;;;;4.99;62.16;99585.72;4453304;32;20163;-80
2023/12/21 01:23:47;;;;;;;2.40;2.20;;;;;;;5.30;61.68;99581.47;4453991;32;20740;-80
2023/12/21 01:26:15;;;;;;;3.85;2.62;;;;;;;5.49;60.81;99582.19;4453416;32;20191;-79
2023/12/21 01:28:48;;;;;;;2.62;2.08;;;;;;;5.43;60.96;99579.91;4453379;32;20159;-80
2023/12/21 01:31:21;;;;;;;5.30;2.58;;;;;;;5.58;60.31;99572.97;4453225;32;20188;-80
2023/12/21 01:33:51;;;;;;;3.83;2.25;;;;;;;5.55;60.34;99566.09;4453104;32;20175;-80
2023/12/21 01:36:21;;;;;;;3.05;2.15;;;;;;;5.63;59.90;99555.19;4453096;32;20156;-80
2023/12/21 01:38:50;;;;;;;4.55;2.20;;;;;;;5.58;59.89;99557.19;4453252;32;20552;-80
2023/12/21 01:41:19;;;;;;;6.47;2.12;;;;;;;5.62;59.68;99550.84;4453334;32;20159;-80
2023/12/21 01:43:49;;;;;;;2.58;2.08;;;;;;;5.59;59.75;99548.41;4453113;32;20162;-80
2023/12/21 01:46:24;;;;;;;4.18;2.08;;;;;;;5.90;59.00;99534.41;4452836;32;20795;-77
2023/12/21 01:48:55;;;;;;;4.85;2.75;;;;;;;5.94;59.03;99543.00;4452640;32;20160;-77
2023/12/21 01:51:25;;;;;;;3.70;2.42;;;;;;;5.98;58.95;99542.75;4452614;32;20539;-77
2023/12/21 01:53:54;;;;;;;3.62;1.92;;;;;;;5.68;60.00;99540.00;4451738;32;20409;-77
2023/12/21 01:56:23;;;;;;;4.15;2.83;;;;;;;5.79;59.84;99535.00;4453332;32;20171;-77
2023/12/21 01:58:53;;;;;;;6.55;2.17;;;;;;;5.81;60.12;99535.75;4452770;32;20172;-77
2023/12/21 02:04:12;;;;;;;5.32;2.58;;;;;;;5.97;59.38;99527.87;4452802;32;20152;-77
2023/12/21 02:06:41;;;;;;;4.90;2.85;;;;;;;6.08;59.20;99512.34;4452998;32;20445;-77
2023/12/21 02:09:12;;;;;;;6.37;2.90;;;;;;;5.80;60.35;99522.72;4452845;32;20505;-77
2023/12/21 02:11:42;;;;;;;2.97;2.05;;;;;;;6.17;59.34;99510.97;4453049;32;20172;-77
2023/12/21 02:14:11;;;;;;;4.50;2.50;;;;;;;5.87;60.03;99511.75;4452759;32;20164;-77
2023/12/21 02:16:43;;;;;;;5.37;2.78;;;;;;;5.84;60.25;99514.56;4452261;32;20163;-77
2023/12/21 02:19:16;;;;;;;4.87;2.53;;;;;;;5.53;61.24;99499.63;4452454;32;20175;-77
2023/12/21 02:21:50;;;;;;;3.97;2.92;;;;;;;5.57;60.20;99506.41;4452754;32;20191;-77
2023/12/21 02:24:21;;;;;;;7.05;2.62;;;;;;;5.56;60.34;99509.12;4452759;32;20509;-77
2023/12/21 02:26:50;;;;;;;3.35;2.53;;;;;;;5.57;60.26;99505.56;4452880;32;20140;-77
2023/12/21 02:29:20;;;;;;;5.20;2.72;;;;;;;5.64;60.13;99499.88;4453125;32;20156;-77
2023/12/21 02:31:48;;;;;;;6.35;2.75;;;;;;;5.67;59.93;99505.00;4452837;32;20221;-77
2023/12/21 02:34:17;;;;;;;3.40;2.65;;;;;;;5.99;59.02;99486.59;4452567;32;20172;-77
2023/12/21 02:36:47;;;;;;;4.03;2.20;;;;;;;6.05;58.82;99485.38;4452739;32;20160;-77
2023/12/21 02:39:16;;;;;;;6.65;2.67;;;;;;;6.26;58.26;99483.31;4452876;32;20156;-77
2023/12/21 02:41:52;;;;;;;4.28;2.80;;;;;;;5.97;59.02;99484.97;4452728;32;20152;-77
2023/12/21 02:44:22;;;;;;;6.15;3.35;;;;;;;6.23;58.42;99488.75;4437128;32;20446;-77
2023/12/21 02:46:54;;;;;;;3.17;2.37;;;;;;;6.25;58.23;99495.59;4437528;32;20177;-77
2023/12/21 02:49:23;;;;;;;4.68;2.55;;;;;;;6.05;58.57;99486.22;4436983;32;20166;-77
2023/12/21 02:51:52;;;;;;;3.08;2.22;;;;;;;5.83;59.25;99486.56;4436863;32;20156;-77
2023/12/21 02:54:22;;;;;;;3.92;2.12;;;;;;;5.72;59.27;99485.47;4436822;32;20704;-77
2023/12/21 02:56:59;;;;;;;4.12;2.50;;;;;;;5.84;58.52;99487.41;4437202;32;20196;-77
2023/12/21 02:59:34;;;;;;;4.30;2.78;;;;;;;5.91;58.84;99467.75;4423420;32;20180;-77
2023/12/21 03:02:04;;;;;;;6.90;2.95;;;;;;;5.97;58.30;99471.81;4437389;32;20152;-77
2023/12/21 03:04:33;;;;;;;5.03;3.47;;;;;;;5.90;58.52;99468.69;4436677;32;20534;-77
2023/12/21 03:07:08;;;;;;;4.72;2.47;;;;;;;6.06;58.04;99466.91;4437057;32;20183;-77
2023/12/21 03:09:38;;;;;;;4.72;2.20;;;;;;;6.12;57.84;99476.22;4436872;32;20151;-77
2023/12/21 03:12:08;;;;;;;4.45;2.97;;;;;;;5.90;58.37;99471.31;4437139;32;20436;-77
2023/12/21 03:14:43;;;;;;;5.50;2.80;;;;;;;6.20;57.69;99475.75;4436929;32;20140;-77
2023/12/21 03:17:12;;;;;;;4.97;2.75;;;;;;;6.08;57.88;99470.28;4436628;32;20176;-77
2023/12/21 03:19:41;;;;;;;4.80;3.00;;;;;;;6.04;57.87;99471.38;4436831;32;20179;-77
2023/12/21 03:22:10;;;;;;;3.40;2.80;;;;;;;6.06;57.74;99460.78;4436948;32;20179;-77
2023/12/21 03:24:43;;;;;;;5.05;3.28;;;;;;;5.86;58.14;99459.25;4436847;32;20595;-77
2023/12/21 03:27:15;;;;;;;4.87;3.22;;;;;;;6.03;57.86;99467.06;4436785;32;20156;-77
2023/12/21 03:29:44;;;;;;;7.47;3.60;;;;;;;5.95;57.85;99464.03;4437250;32;20184;-77
2023/12/21 03:32:13;;;;;;;5.70;3.97;;;;;;;6.02;57.60;99456.62;4436545;32;20160;-77
2023/12/21 03:34:43;;;;;;;5.97;3.65;;;;;;;5.83;58.37;99462.06;4436693;32;20179;-77
2023/12/21 03:37:13;;;;;;;8.43;3.90;;;;;;;5.83;58.42;99459.44;4436593;32;20172;-77
2023/12/21 03:39:42;;;;;;;8.25;3.80;;;;;;;6.16;57.69;99470.66;4436464;32;20180;-77
2023/12/21 03:42:11;;;;;;;6.40;3.10;;;;;;;6.07;58.05;99467.75;4436449;32;20172;-77
2023/12/21 03:44:44;;;;;;;5.60;3.15;;;;;;;6.13;57.95;99475.25;4436793;32;20478;-77
2023/12/21 03:47:13;;;;;;;5.97;3.53;;;;;;;6.05;58.33;99470.44;4436200;32;20614;-77
2023/12/21 03:49:42;;;;;;;5.53;3.58;;;;;;;5.85;59.04;99463.66;4436222;32;20163;-77
2023/12/21 03:52:15;;;;;;;7.53;3.83;;;;;;;6.01;58.70;99453.13;4436321;32;20145;-77
2023/12/21 03:54:44;;;;;;;5.20;2.97;;;;;;;6.26;57.93;99459.63;4436076;32;20584;-77
2023/12/21 03:57:13;;;;;;;5.12;3.25;;;;;;;6.12;58.53;99460.41;4435928;32;20163;-77
2023/12/21 03:59:44;;;;;;;7.05;3.00;;;;;;;6.02;58.77;99449.59;4436293;32;20155;-77
2023/12/21 04:02:14;;;;;;;5.17;3.30;;;;;;;5.84;59.45;99447.97;4435792;32;20181;-76
2023/12/21 04:04:44;;;;;;;4.05;3.58;;;;;;;5.95;58.92;99437.72;4435996;32;20165;-77
2023/12/21 04:07:13;;;;;;;6.12;3.92;;;;;;;5.85;59.38;99434.75;4435842;32;20177;-77
2023/12/21 04:09:42;;;;;;;5.20;3.72;;;;;;;5.91;59.26;99425.66;4435881;32;20153;-77
2023/12/21 04:12:11;;;;;;;7.32;3.95;;;;;;;5.74;59.70;99429.28;4435660;32;20160;-77
2023/12/21 04:14:45;;;;;;;5.68;3.65;;;;;;;5.77;59.75;99428.22;4435972;32;20748;-77
2023/12/21 04:17:15;;;;;;;6.97;4.28;;;;;;;5.78;60.01;99425.53;4437070;32;20195;-76
2023/12/21 04:19:50;;;;;;;5.28;3.75;;;;;;;5.56;60.48;99423.25;4437602;32;20171;-76
2023/12/21 04:22:20;;;;;;;5.47;4.35;;;;;;;5.68;60.21;99422.56;4437705;32;20564;-76
2023/12/21 04:24:52;;;;;;;6.28;4.62;;;;;;;5.26;61.55;99419.69;4437986;32;20823;-76
2023/12/21 04:27:22;;;;;;;5.62;4.87;;;;;;;5.20;61.50;99422.69;4437898;32;20558;-77
2023/12/21 04:29:53;;;;;;;6.25;4.60;;;;;;;5.23;61.41;99423.38;4437887;32;20195;-77
2023/12/21 04:32:22;;;;;;;5.15;3.90;;;;;;;5.38;60.79;99419.88;4438106;32;20136;-77
2023/12/21 04:34:51;;;;;;;7.45;4.82;;;;;;;5.55;60.04;99405.81;4437566;32;20153;-77
2023/12/21 04:37:20;;;;;;;6.85;4.37;;;;;;;5.29;60.93;99404.63;4437581;32;20461;-77
2023/12/21 04:39:49;;;;;;;8.30;4.60;;;;;;;5.51;60.33;99400.81;4437821;32;20195;-77
2023/12/21 04:42:18;;;;;;;5.43;3.95;;;;;;;5.32;60.68;99407.09;4437315;32;20455;-77
2023/12/21 04:44:48;;;;;;;6.85;4.22;;;;;;;5.14;61.30;99401.06;4437187;32;20531;-77
2023/12/21 04:47:19;;;;;;;10.38;6.32;;;;;;;5.22;61.17;99400.63;4437806;32;20140;-77
2023/12/21 04:49:52;;;;;;;7.15;4.65;;;;;;;4.92;62.19;99395.28;4437144;32;20156;-77
2023/12/21 04:52:21;;;;;;;9.20;5.68;;;;;;;5.15;61.46;99396.69;4437227;32;20159;-77
2023/12/21 04:54:50;;;;;;;9.52;6.55;;;;;;;5.39;60.64;99381.31;4437180;32;20180;-77
2023/12/21 04:57:19;;;;;;;11.93;7.78;;;;;;;4.60;62.88;99386.53;4437175;32;20160;-77
2023/12/21 04:59:50;;;;;;;11.30;5.80;;;;;;;4.62;63.04;99382.88;4423470;32;20156;-77
2023/12/21 05:02:20;;;;;;;8.13;5.72;;;;;;;4.80;62.40;99378.44;4452849;32;20140;-76
2023/12/21 05:04:50;;;;;;;7.10;5.65;;;;;;;4.94;62.15;99372.41;4452803;32;20175;-76
2023/12/21 05:07:19;;;;;;;9.55;6.70;;;;;;;4.61;62.97;99365.44;4452755;32;20459;-77
2023/12/21 05:09:48;;;;;;;8.82;6.37;;;;;;;4.57;62.99;99365.69;4452750;32;20171;-77
2023/12/21 05:12:20;;;;;;;8.35;6.05;;;;;;;4.62;62.95;99364.50;4452688;32;20152;-77
2023/12/21 05:14:50;;;;;;;12.70;6.47;;;;;;;4.76;62.32;99366.41;4452788;32;20148;-77
2023/12/21 05:17:21;;;;;;;9.05;5.78;;;;;;;4.86;61.81;99356.25;4452990;32;20423;-77
2023/12/21 05:19:50;;;;;;;7.97;5.93;;;;;;;4.73;61.98;99353.44;4438290;32;20167;-77
2023/12/21 05:22:19;;;;;;;10.35;6.30;;;;;;;4.64;62.53;99349.53;4452828;32;20493;-77
2023/12/21 05:24:48;;;;;;;13.23;7.62;;;;;;;4.57;62.40;99347.31;4453032;32;20164;-77
2023/12/21 05:27:18;;;;;;;13.07;9.23;;;;;;;4.59;62.69;99351.56;4452694;32;20168;-77
2023/12/21 05:29:47;;;;;;;13.35;7.82;;;;;;;4.00;64.83;99349.41;4452851;32;20144;-77
2023/12/21 05:32:16;;;;;;;11.43;8.60;;;;;;;4.59;62.65;99355.94;4452708;32;20187;-77
2023/12/21 05:34:48;;;;;;;11.98;8.30;;;;;;;4.19;63.64;99350.19;4452553;32;20186;-77
2023/12/21 05:37:18;;;;;;;10.20;7.43;;;;;;;4.79;61.70;99344.38;4452286;32;20187;-77
2023/12/21 05:39:48;;;;;;;13.02;8.43;;;;;;;4.87;61.24;99342.19;4452179;32;20160;-77
2023/12/21 05:42:17;;;;;;;15.50;9.77;;;;;;;3.93;63.99;99343.66;4452239;32;20156;-77
2023/12/21 05:44:47;;;;;;;22.35;13.73;;;;;;;3.65;64.93;99355.53;4452620;32;20183;-77
2023/12/21 05:47:16;;;;;;;15.20;10.55;;;;;;;3.23;66.69;99342.75;4451994;32;20182;-77
2023/12/21 05:49:45;;;;;;;15.15;10.57;;;;;;;2.85;68.19;99352.41;4452143;32;20159;-77
2023/12/21 05:52:16;;;;;;;12.27;9.25;;;;;;;3.37;66.32;99344.72;4451966;32;20148;-77
2023/12/21 05:54:47;;;;;;;16.52;10.93;;;;;;;3.69;65.09;99340.50;4451944;32;20171;-77
2023/12/21 05:57:16;;;;;;;18.52;11.12;;;;;;;3.40;66.31;99344.53;4452015;32;20547;-77
2023/12/21 05:59:46;;;;;;;19.60;11.75;;;;;;;3.70;65.48;99345.66;4452369;32;20144;-77
2023/12/21 06:02:14;;;;;;;15.10;10.02;;;;;;;3.84;65.29;99344.13;4451902;32;20160;-77
2023/12/21 06:04:47;;;;;;;20.85;10.95;;;;;;;4.43;63.09;99333.19;4451835;32;20176;-77
2023/12/21 06:07:21;;;;;;;16.15;11.00;;;;;;;4.37;63.14;99337.87;4452070;32;20437;-77
2023/12/21 06:09:51;;;;;;;18.42;11.45;;;;;;;4.46;62.75;99339.16;4452129;32;20143;-77
2023/12/21 06:12:20;;;;;;;18.37;11.70;;;;;;;3.97;63.96;99326.84;4452185;32;20152;-77
2023/12/21 06:14:49;;;;;;;17.90;12.02;;;;;;;3.30;66.80;99327.59;4452247;32;20183;-77
2023/12/21 06:17:18;;;;;;;19.25;12.90;;;;;;;3.77;65.28;99333.13;4452180;32;20186;-78
2023/12/21 06:19:47;;;;;;;21.15;14.35;;;;;;;3.82;64.86;99333.72;4451941;32;20547;-78
2023/12/21 06:22:17;;;;;;;22.02;14.32;;;;;;;4.00;64.50;99323.22;4452120;32;20160;-77
2023/12/21 06:24:49;;;;;;;21.45;14.50;;;;;;;3.67;65.32;99317.00;4452462;32;20155;-77
2023/12/21 06:27:19;;;;;;;26.50;13.85;;;;;;;3.03;67.91;99320.16;4452176;32;20171;-77
2023/12/21 06:29:48;;;;;;;20.92;13.88;;;;;;;3.67;65.90;99311.75;4451892;32;20147;-77
2023/12/21 06:32:17;;;;;;;25.92;17.08;;;;;;;4.14;64.47;99313.72;4452204;32;20607;-77
2023/12/21 06:34:47;;;;;;;29.23;18.92;;;;;;;3.61;66.36;99312.06;4451918;32;20179;-77
2023/12/21 06:37:17;;;;;;;27.35;18.05;;;;;;;3.89;65.98;99310.69;4452147;32;20441;-77
2023/12/21 06:39:46;;;;;;;26.65;17.55;;;;;;;4.03;65.38;99316.03;4451334;32;20159;-77
2023/12/21 06:42:16;;;;;;;27.85;17.62;;;;;;;3.73;66.49;99313.22;4452019;32;20148;-77
2023/12/21 06:44:48;;;;;;;27.20;17.52;;;;;;;3.90;66.08;99321.06;4452736;32;20182;-77
2023/12/21 06:47:17;;;;;;;30.77;21.35;;;;;;;4.24;64.90;99318.47;4451846;32;20179;-77
2023/12/21 06:49:46;;;;;;;25.73;16.05;;;;;;;4.34;65.05;99323.16;4451829;32;20171;-77
2023/12/21 06:52:15;;;;;;;24.58;16.12;;;;;;;4.80;63.42;99319.84;4451926;32;20163;-78
2023/12/21 06:54:47;;;;;;;19.17;13.73;;;;;;;4.89;62.70;99325.41;4452036;32;20180;-77
2023/12/21 06:57:25;;;;;;;16.87;13.20;;;;;;;4.97;61.41;99306.63;4451607;32;20203;-77
2023/12/21 06:59:57;;;;;;;14.90;11.02;;;;;;;4.82;61.72;99313.56;4451906;32;20195;-77
2023/12/21 07:02:26;;;;;;;;;;;;;;;5.14;60.22;99297.78;4452442;32;20168;-78
2023/12/21 07:04:55;;;;;;;16.70;11.70;;;;;;;4.91;60.74;99288.59;4437587;32;20039;-78
2023/12/21 07:07:25;;;;;;;20.05;12.10;;;;;;;4.73;61.32;99289.63;4451731;32;20783;-78
2023/12/21 07:09:54;;;;;;;17.65;10.93;;;;;;;4.48;61.90;99288.34;4451701;32;20156;-78
2023/12/21 07:12:27;;;;;;;17.55;11.50;;;;;;;4.32;62.29;99290.09;4451777;32;20191;-78
2023/12/21 07:14:56;;;;;;;16.35;12.05;;;;;;;4.30;62.20;99291.94;4451722;32;20151;-78
2023/12/21 07:17:25;;;;;;;17.10;11.48;;;;;;;4.33;62.13;99294.41;4451963;32;20144;-78
2023/12/21 07:19:54;;;;;;;16.00;11.25;;;;;;;4.37;62.05;99280.19;4451165;32;20137;-78
2023/12/21 07:22:23;;;;;;;18.67;14.35;;;;;;;4.54;61.54;99276.66;4451298;32;20578;-78
2023/12/21 07:24:53;;;;;;;22.15;15.50;;;;;;;4.35;61.75;99268.91;4451590;32;20586;-78
2023/12/21 07:27:22;;;;;;;22.90;16.95;;;;;;;4.40;61.50;99280.03;4451675;32;20160;-78
2023/12/21 07:29:52;;;;;;;19.08;14.68;;;;;;;4.42;61.44;99280.78;4451500;32;20171;-78
2023/12/21 07:32:22;;;;;;;18.67;13.88;;;;;;;4.29;61.92;99264.84;4451843;32;20171;-78
2023/12/21 07:34:52;;;;;;;19.73;13.45;;;;;;;4.03;63.02;99252.28;4437116;32;20222;-78
2023/12/21 07:37:24;;;;;;;19.23;12.57;;;;;;;4.16;62.96;99267.31;4451525;32;20152;-78
2023/12/21 07:39:53;;;;;;;19.45;13.82;;;;;;;4.08;63.44;99263.34;4451614;32;20211;-77
2023/12/21 07:42:22;;;;;;;17.23;12.32;;;;;;;4.13;63.85;99264.00;4451607;32;20152;-77
2023/12/21 07:44:53;;;;;;;17.42;12.30;;;;;;;4.39;63.65;99260.78;4452244;32;20428;-77
2023/12/21 07:47:23;;;;;;;19.73;15.13;;;;;;;4.56;63.75;99249.41;4452871;32;20144;-77
2023/12/21 07:49:58;;;;;;;23.45;15.77;;;;;;;5.18;62.43;99252.03;4445460;32;20176;-77
2023/12/21 07:52:30;;;;;;;26.23;17.00;;;;;;;5.60;61.40;99253.94;4453066;32;20163;-77
2023/12/21 07:55:00;;;;;;;16.83;13.05;;;;;;;5.77;59.98;99238.97;4453826;32;20167;-77
2023/12/21 07:57:29;;;;;;;19.12;14.45;;;;;;;5.78;61.89;99233.63;4453436;32;20167;-77
2023/12/21 08:00:00;;;;;;;16.33;13.05;;;;;;;5.60;63.27;99235.56;4453194;32;20156;-77
2023/12/21 08:02:40;;;;;;;16.52;12.55;;;;;;;5.76;62.88;99242.53;4453100;32;20171;-77
2023/12/21 08:05:09;;;;;;;17.17;12.95;;;;;;;5.71;63.12;99240.19;4452994;32;20167;-77
2023/12/21 08:07:39;;;;;;;21.23;14.23;;;;;;;5.65;63.34;99238.75;4453406;32;20457;-77
2023/12/21 08:10:09;;;;;;;20.90;12.27;;;;;;;5.64;63.29;99229.19;4452892;32;20516;-77
2023/12/21 08:12:39;;;;;;;16.08;11.43;;;;;;;5.88;62.79;99226.00;4452660;32;20163;-77
2023/12/21 08:15:10;;;;;;;18.27;11.93;;;;;;;5.94;62.23;99223.06;4452853;32;20425;-77
2023/12/21 08:17:42;;;;;;;15.17;11.40;;;;;;;5.80;62.68;99223.00;4453170;32;20168;-77
2023/12/21 08:20:19;;;;;;;52.20;26.40;;;;;;;5.64;63.11;99228.34;4452365;32;20157;-77
2023/12/21 08:22:49;;;;;;;22.05;13.18;;;;;;;5.34;64.02;99220.47;4452712;32;20563;-77
2023/12/21 08:25:18;;;;;;;17.60;11.45;;;;;;;5.48;63.80;99224.94;4452829;32;20528;-77
2023/12/21 08:27:50;;;;;;;16.77;12.10;;;;;;;5.45;63.92;99207.56;4452724;32;20155;-77
2023/12/21 08:30:27;;;;;;;15.13;9.82;;;;;;;5.44;64.13;99213.75;4452457;32;20215;-77
2023/12/21 08:32:56;;;;;;;17.25;12.02;;;;;;;5.70;63.61;99221.84;4452822;32;20144;-77
2023/12/21 08:35:26;;;;;;;14.65;10.50;;;;;;;5.89;62.94;99212.75;4452962;32;20162;-77
2023/12/21 08:37:56;;;;;;;12.25;9.98;;;;;;;5.99;62.71;99217.50;4446510;32;20504;-77
2023/12/21 08:40:26;;;;;;;14.98;10.85;;;;;;;5.73;63.51;99212.00;4452175;32;20171;-77
2023/12/21 08:42:55;;;;;;;13.62;10.60;;;;;;;5.95;62.89;99218.63;4452225;32;20155;-77
2023/12/21 08:45:28;;;;;;;13.38;9.70;;;;;;;5.80;63.97;99220.38;4452029;32;20155;-77
2023/12/21 08:47:59;;;;;;;15.35;9.82;;;;;;;6.43;63.54;99222.63;4452143;32;20179;-76
2023/12/21 08:50:29;;;;;;;14.48;9.98;;;;;;;6.49;62.35;99224.03;4452309;32;20169;-77
2023/12/21 08:53:07;;;;;;;14.48;10.65;;;;;;;6.24;62.16;99222.09;4452119;32;20160;-77
2023/12/21 08:55:37;;;;;;;15.27;9.65;;;;;;;6.37;61.71;99218.63;4451931;32;20204;-77
2023/12/21 08:58:07;;;;;;;15.75;10.50;;;;;;;6.29;62.03;99207.69;4451773;32;20168;-77
2023/12/21 09:00:41;;;;;;;14.35;11.40;;;;;;;6.13;62.45;99231.47;4451960;32;20168;-77
2023/12/21 09:03:13;;;;;;;16.75;11.43;;;;;;;6.00;63.12;99230.56;4452011;32;20156;-77
2023/12/21 09:05:42;;;;;;;16.23;11.50;;;;;;;6.27;nan;99222.75;4453820;32;20737;-77
2023/12/21 09:08:12;;;;;;;16.02;11.18;;;;;;;6.42;62.04;99215.69;4451963;32;20152;-77
2023/12/21 09:10:40;;;;;;;14.07;10.40;;;;;;;6.72;61.41;99217.31;4451878;32;20524;-78
2023/12/21 09:13:11;;;;;;;15.30;11.43;;;;;;;6.60;61.32;99211.03;4452845;32;20168;-77
2023/12/21 09:15:41;;;;;;;14.45;10.32;;;;;;;6.71;61.11;99227.00;4451955;32;20156;-77
2023/12/21 09:18:14;;;;;;;16.12;11.05;;;;;;;6.82;60.84;99210.50;4451957;32;20151;-77
2023/12/21 09:20:43;;;;;;;16.48;9.77;;;;;;;7.10;60.12;99201.66;4452472;32;20149;-77
2023/12/21 09:23:13;;;;;;;18.85;10.68;;;;;;;6.70;61.37;99198.13;4451870;32;20172;-77
2023/12/21 09:25:42;;;;;;;15.25;11.82;;;;;;;6.67;61.19;99199.16;4451973;32;20463;-77
2023/12/21 09:28:14;;;;;;;15.48;10.63;;;;;;;6.53;61.96;99193.94;4451912;32;20159;-77
2023/12/21 09:30:45;;;;;;;17.02;11.60;;;;;;;6.59;61.70;99183.88;4451762;32;20175;-77
2023/12/21 09:33:14;;;;;;;15.73;11.20;;;;;;;6.42;62.34;99184.13;4451690;32;20164;-77
2023/12/21 09:35:44;;;;;;;20.98;11.27;;;;;;;6.64;61.72;99183.56;4452105;32;20164;-77
2023/12/21 09:38:13;;;;;;;15.35;11.55;;;;;;;6.44;62.06;99176.94;4451729;32;20164;-77
2023/12/21 09:40:42;;;;;;;16.80;12.20;;;;;;;6.32;62.66;99170.69;4437403;32;20175;-77
2023/12/21 09:43:16;;;;;;;21.33;12.63;;;;;;;6.43;62.62;99170.00;4451780;32;20172;-77
2023/12/21 09:45:51;;;;;;;17.37;11.85;;;;;;;6.64;61.90;99155.44;4451766;32;20164;-77
2023/12/21 09:48:21;;;;;;;17.75;13.70;;;;;;;6.71;61.77;99149.81;4451647;32;20179;-77
2023/12/21 09:50:52;;;;;;;16.00;11.73;;;;;;;6.79;61.55;99140.44;4451901;32;20160;-77
2023/12/21 09:53:23;;;;;;;16.45;11.85;;;;;;;6.63;61.88;99131.87;4451807;32;20160;-77
2023/12/21 09:55:54;;;;;;;16.75;11.52;;;;;;;6.95;61.15;99131.53;4451701;32;20447;-77
2023/12/21 09:58:24;;;;;;;17.25;12.25;;;;;;;6.86;61.54;99127.72;4451479;32;20159;-77
2023/12/21 10:00:55;;;;;;;17.75;12.32;;;;;;;6.87;61.49;99126.78;4451546;32;20456;-77
2023/12/21 10:03:30;;;;;;;18.75;12.75;;;;;;;6.82;61.71;99124.47;4451484;32;20546;-77
2023/12/21 10:06:02;;;;;;;18.45;12.75;;;;;;;6.86;61.71;99139.09;4451511;32;20140;-77
2023/12/21 10:08:33;;;;;;;19.52;12.60;;;;;;;7.32;60.40;99127.25;4451797;32;20156;-77
2023/12/21 10:11:06;;;;;;;14.25;11.55;;;;;;;6.90;61.51;99126.59;4451845;32;20179;-77
2023/12/21 10:13:47;;;;;;;20.90;13.00;;;;;;;6.98;61.43;99113.75;4450267;32;20159;-77
2023/12/21 10:16:18;;;;;;;17.02;12.07;;;;;;;6.93;61.80;99110.59;4451215;32;20175;-77
2023/12/21 10:18:50;;;;;;;20.42;13.30;;;;;;;6.88;61.99;99100.34;4451357;32;20194;-77
2023/12/21 10:21:22;;;;;;;18.73;12.60;;;;;;;6.84;61.98;99092.75;4451447;32;20444;-77
2023/12/21 10:23:52;;;;;;;20.15;16.25;;;;;;;7.17;61.00;99088.78;4451446;32;20529;-77
2023/12/21 10:26:22;;;;;;;18.33;13.60;;;;;;;6.96;61.50;99080.53;4451871;32;20180;-77
2023/12/21 10:28:55;;;;;;;16.40;12.18;;;;;;;7.12;61.38;99081.19;4451461;32;20168;-77
2023/12/21 10:31:32;;;;;;;19.50;12.63;;;;;;;7.64;59.74;99065.28;4451606;32;20148;-77
2023/12/21 10:34:02;;;;;;;18.98;12.43;;;;;;;7.67;59.70;99053.63;4451310;32;20179;-77
2023/12/21 10:36:32;;;;;;;17.60;12.05;;;;;;;7.59;59.90;99048.06;4451202;32;20168;-77
2023/12/21 10:39:02;;;;;;;15.57;11.60;;;;;;;7.29;60.92;99045.81;4451325;32;20159;-77
2023/12/21 10:41:31;;;;;;;15.55;11.23;;;;;;;7.19;61.28;99021.88;4451542;32;20155;-77
2023/12/21 10:44:01;;;;;;;19.50;12.37;;;;;;;7.83;59.69;99021.75;4451362;32;20175;-77
2023/12/21 10:46:36;;;;;;;;;;;;;;;7.98;59.23;99012.72;4451509;32;20152;-77
2023/12/21 10:49:06;;;;;;;16.08;11.23;;;;;;;7.95;59.40;99001.56;4451730;32;20317;-77
2023/12/21 10:51:39;;;;;;;14.10;10.75;;;;;;;8.00;58.69;98997.66;4451223;32;20198;-77
2023/12/21 10:54:12;;;;;;;12.88;11.02;;;;;;;8.10;58.60;98982.81;4436887;32;20143;-77
2023/12/21 10:56:42;;;;;;;15.27;10.85;;;;;;;8.24;57.94;98973.88;4447044;32;140900;-77
2023/12/21 10:59:14;;;;;;;17.00;12.13;;;;;;;8.27;58.00;98956.97;4451005;32;20167;-77
2023/12/21 11:01:45;;;;;;;16.30;11.38;;;;;;;8.51;57.24;98946.38;4451146;32;20132;-77
2023/12/21 11:04:18;;;;;;;18.30;11.75;;;;;;;8.53;57.05;98933.91;4436626;32;20171;-77
2023/12/21 11:06:50;;;;;;;17.00;10.95;;;;;;;8.06;58.33;98928.59;4451096;32;20188;-77
2023/12/21 11:09:20;;;;;;;14.65;10.95;;;;;;;8.08;58.35;98924.06;4450857;32;20147;-77
2023/12/21 11:11:50;;;;;;;15.95;10.98;;;;;;;8.27;58.21;98914.75;4451285;32;20399;-77
2023/12/21 11:14:19;;;;;;;15.88;9.25;;;;;;;8.34;57.79;98916.78;4451803;32;20163;-77
2023/12/21 11:16:54;;;;;;;13.73;11.12;;;;;;;8.51;56.83;98898.84;4451001;32;20198;-77
2023/12/21 11:19:32;;;;;;;12.57;9.30;;;;;;;8.43;57.22;98899.44;4451072;32;20148;-77
2023/12/21 11:22:08;;;;;;;14.13;11.32;;;;;;;8.49;57.32;98892.88;4450945;32;20168;-77
2023/12/21 11:24:38;;;;;;;14.10;9.52;;;;;;;8.65;56.37;98890.72;4450758;32;20183;-77
2023/12/21 11:27:07;;;;;;;14.07;9.85;;;;;;;8.78;56.34;98882.69;4451104;32;20163;-77
2023/12/21 11:29:37;;;;;;;12.68;9.02;;;;;;;8.81;56.24;98878.00;4451455;32;20223;-77
2023/12/21 11:32:08;;;;;;;13.68;9.55;;;;;;;8.64;56.89;98875.03;4450955;32;20164;-77
2023/12/21 11:34:38;;;;;;;13.98;9.65;;;;;;;8.93;56.13;98876.22;4450864;32;20147;-77
2023/12/21 11:37:16;;;;;;;13.02;9.15;;;;;;;8.77;56.47;98870.44;4450895;32;20171;-78
2023/12/21 11:39:48;;;;;;;10.48;7.78;;;;;;;8.84;56.16;98867.22;4450742;32;20165;-77
2023/12/21 11:42:20;;;;;;;12.00;8.98;;;;;;;8.65;55.63;98858.22;4450729;32;20164;-77
2023/12/21 11:44:55;;;;;;;10.63;7.55;;;;;;;8.88;55.11;98851.13;4450874;32;20156;-76
2023/12/21 11:47:26;;;;;;;11.05;8.07;;;;;;;8.88;55.23;98849.31;4451062;32;20147;-77
2023/12/21 11:50:04;;;;;;;11.90;8.68;;;;;;;8.60;55.62;98840.91;4450688;32;20156;-77
2023/12/21 11:52:34;;;;;;;11.35;7.22;;;;;;;8.71;55.65;98826.87;4450607;32;20520;-77